Saint Teresa, Florida
Current Conditions -  °F | °C
As of 2:01 PM on Sunday 23 Nov 2014 (Local Time) from KTLH Reporting Station
Haze Haze  
Wind Chill: 73°   Ceiling: 300
Heat Index: 73°   Visibility: 1.7mi
Dew Point: 69°   Wind: 18mph
Humidity: 87%   Direction: 170°S
Pressure: 29.78"   Gusts: 25mph
Location:  30.1572°N, 84.5437°W
Report Text: KTLH 231901Z 17016G22KT 1 3/4SM BR OVC003 23/21 A2978 RMK AO2 SFC VIS 4 T02280206 $
Loading
Personal Weather Stations






























Interactive Weather Map New forecast layout! Learn more

10-Day Weather Forecast

Advertisements
Track Severe Weather on mobile